Latest Weather Observations for Lochington

IDQ60801

Issued at 4:32 pm EST Thursday 2 April 2015 (issued every 30 minutes, with the page automatically refreshed every 10 minutes)

About weather observations | Map of weather stations | Latest weather observations for QLD | Other Formats
Station Details ID: 035139 Name: LOCHINGTON Lat: -23.94 Lon: 147.53 Height: 267.19 m
Data from the previous 72 hours. | See also: Recent months at Lochington
Date/Time
EST
Temp
°C
App
Temp
°C
Dew
Point
Rel
Hum
%
Delta-T
°C
Wind Press
QNH
hPa
Press
MSL
hPa
Rain
since 9 am
mm
Dir
 
Spd
km/h
Gust
km/h
Spd
kts
Gust
kts
02/04:30pm 29.5 28.6 13.7 38 9.6 ESE 11 19 6 10 1012.5 1011.2 0.0
02/04:00pm 29.1 28.4 13.3 37 9.5 SE 9 15 5 8 1012.4 1011.1 0.0
02/03:30pm 29.7 29.5 13.5 37 9.8 SE 7 15 4 8 1012.6 1011.3 0.0
02/03:00pm 29.9 30.2 14.4 38 9.5 ESE 6 13 3 7 1012.7 1011.4 0.0
02/02:30pm 29.5 30.3 13.7 38 9.6 WSW 2 6 1 3 1012.8 1011.5 0.0
02/02:00pm 29.1 29.3 14.1 40 9.1 NE 6 7 3 4 1013.2 1011.9 0.0
02/01:30pm 28.1 28.0 14.0 42 8.5 SE 7 19 4 10 1013.8 1012.6 0.0
02/01:00pm 28.6 28.2 15.2 44 8.3 SE 11 24 6 13 1014.2 1013.0 0.0
02/12:30pm 28.4 28.7 16.0 47 7.7 SSE 9 15 5 8 1014.7 1013.5 0.0
02/12:00pm 27.2 27.6 15.2 47 7.4 SSE 7 17 4 9 1015.3 1014.1 0.0
02/11:30am 27.9 27.6 15.5 46 7.7 SE 11 17 6 9 1015.8 1014.6 0.0
02/11:00am 26.1 25.8 15.5 52 6.5 SSE 11 19 6 10 1016.2 1014.9 0.0
02/10:30am 26.1 25.7 15.2 51 6.7 ESE 11 19 6 10 1016.5 1015.2 0.0
02/10:00am 25.7 25.6 16.0 55 6.0 ESE 11 17 6 9 1016.8 1015.5 0.0
02/09:30am 24.7 24.2 15.9 58 5.4 ESE 13 20 7 11 1017.0 1015.8 0.0
02/09:00am 24.0 23.5 16.0 61 4.9 ESE 13 22 7 12 1017.1 1015.9 0.2
02/08:30am 22.4 20.5 15.3 64 4.3 ESE 19 26 10 14 1017.3 1016.1 0.2
02/08:00am 21.8 20.3 15.4 67 3.9 ESE 17 24 9 13 1017.3 1016.1 0.2
02/07:30am 20.9 20.3 15.7 72 3.1 ESE 13 20 7 11 1017.1 1015.9 0.2
02/07:00am 19.7 19.5 15.6 77 2.5 ESE 11 15 6 8 1016.8 1015.5 0.2
02/06:30am 18.8 18.7 15.9 83 1.7 ESE 11 15 6 8 1016.7 1015.4 0.2
02/06:00am 18.2 18.9 15.5 84 1.6 SE 6 9 3 5 1016.4 1015.1 0.2
02/05:30am 18.5 19.2 15.6 83 1.7 SE 6 7 3 4 1016.2 1014.9 0.2
02/05:00am 18.9 19.4 15.6 81 2.0 SE 7 11 4 6 1015.9 1014.7 0.2
02/04:30am 19.8 20.4 15.9 78 2.3 SE 7 11 4 6 1015.8 1014.6 0.2
02/04:00am 20.8 20.8 16.2 75 2.8 SE 11 17 6 9 1015.8 1014.6 0.2
02/03:30am 21.1 21.5 16.3 74 2.9 SE 9 13 5 7 1015.9 1014.7 0.2
02/03:00am 21.2 22.0 16.4 74 2.9 ESE 7 11 4 6 1016.0 1014.8 0.2
02/02:30am 21.3 22.3 16.9 76 2.7 E 7 11 4 6 1016.2 1014.9 0.2
02/02:00am 21.3 22.4 16.7 75 2.8 ENE 6 9 3 5 1016.3 1015.0 0.2
02/01:30am 21.3 22.4 16.7 75 2.8 ENE 6 9 3 5 1016.5 1015.2 0.2
02/01:00am 20.8 21.8 16.8 78 2.5 ENE 7 11 4 6 1016.8 1015.5 0.2
02/12:30am 20.0 20.7 14.4 70 3.3 E 4 6 2 3 1017.1 1015.9 0.2
02/12:00am 20.9 21.1 14.3 66 3.9 E 6 6 3 3 1017.1 1015.9 0.2
 
Date/Time
EST
Temp
°C
App
Temp
°C
Dew
Point
Rel
Hum
%
Delta-T
°C
Wind Press
QNH
hPa
Press
MSL
hPa
Rain
since 9 am
mm
Dir
 
Spd
km/h
Gust
km/h
Spd
kts
Gust
kts
01/11:30pm 21.3 21.3 13.7 62 4.4 ENE 6 7 3 4 1017.2 1016.0 0.2
01/11:00pm 22.3 21.7 13.6 58 5.1 ENE 9 13 5 7 1017.1 1015.9 0.2
01/10:30pm 23.4 22.1 13.8 54 5.7 ENE 13 17 7 9 1016.9 1015.6 0.2
01/10:00pm 24.0 23.1 13.8 53 6.0 SE 11 17 6 9 1016.4 1015.1 0.2
01/09:30pm 23.5 23.0 13.9 55 5.7 SE 9 13 5 7 1016.5 1015.2 0.2
01/09:00pm 22.6 22.4 13.7 57 5.2 SE 7 9 4 5 1016.3 1015.0 0.2
01/08:30pm 22.9 22.7 13.7 56 5.4 ESE 7 9 4 5 1016.0 1014.8 0.2
01/08:00pm 23.9 23.4 13.7 53 6.0 ESE 9 11 5 6 1015.6 1014.4 0.2
01/07:30pm 24.2 24.0 13.7 52 6.2 SE 7 9 4 5 1015.4 1014.2 0.2
01/07:00pm 24.4 24.4 13.6 51 6.4 ESE 6 9 3 5 1015.0 1013.8 0.2
01/06:30pm 25.5 25.2 13.4 47 7.2 SE 7 11 4 6 1014.8 1013.6 0.2
01/06:00pm 27.0 26.6 13.0 42 8.3 SE 7 13 4 7 1014.5 1013.3 0.2
01/05:30pm 28.4 27.2 12.7 38 9.3 SE 11 15 6 8 1014.3 1013.1 0.2
01/05:00pm 28.8 27.6 12.7 37 9.6 ESE 11 20 6 11 1014.1 1012.9 0.2
01/04:30pm 29.4 27.9 13.2 37 9.7 E 13 20 7 11 1014.0 1012.8 0.2
01/04:00pm 29.7 28.6 13.0 35 10.0 ESE 11 17 6 9 1014.0 1012.8 0.2
01/03:30pm 28.1 26.6 13.2 39 8.9 ESE 13 22 7 12 1014.1 1012.9 0.2
01/03:00pm 29.7 28.0 13.5 37 9.8 SE 15 22 8 12 1014.3 1013.1 0.2
01/02:30pm 29.7 28.2 14.3 39 9.4 ESE 15 26 8 14 1014.8 1013.6 0.2
01/02:00pm 29.4 27.6 13.2 37 9.7 SE 15 24 8 13 1015.3 1014.1 0.2
01/01:30pm 28.2 26.7 14.1 42 8.5 SE 15 28 8 15 1015.6 1014.4 0.2
01/01:00pm 29.0 28.5 14.8 42 8.7 SSE 11 20 6 11 1016.2 1014.9 0.2
01/12:30pm 28.2 28.2 15.1 44 8.1 ESE 9 17 5 9 1016.8 1015.5 0.2
01/12:00pm 27.1 26.5 14.5 46 7.6 ESE 11 17 6 9 1017.4 1016.2 0.2
01/11:30am 26.8 25.9 14.9 48 7.3 E 13 24 7 13 1017.8 1016.6 0.2
01/11:00am 26.7 26.1 15.7 51 6.8 E 13 20 7 11 1018.3 1017.1 0.2
01/10:30am 25.3 25.6 15.9 56 5.8 E 9 15 5 8 1019.0 1017.8 0.0
01/10:00am 24.9 24.9 16.3 59 5.3 E 11 17 6 9 1019.2 1018.0 0.0
01/09:30am 24.2 24.9 17.0 64 4.5 E 9 17 5 9 1019.5 1018.0 0.0
01/09:00am 23.4 24.2 16.4 64 4.3 E 7 13 4 7 1019.5 1018.0 0.8
01/08:30am 22.1 23.6 16.6 71 3.4 ESE 4 6 2 3 1019.3 1017.8 0.8
01/08:00am 19.6 21.7 16.3 81 2.0 CALM 0 0 0 0 1019.2 1017.7 0.8
01/07:30am 17.6 19.8 16.5 93 0.7 CALM 0 0 0 0 1019.0 1017.5 0.8
01/07:00am 15.3 16.6 14.2 93 0.6 CALM 0 0 0 0 1018.6 1017.0 0.8
01/06:30am 14.7 15.5 13.6 93 0.6 W 2 6 1 3 1018.6 1017.0 0.8
01/06:00am 14.5 15.6 13.4 93 0.6 CALM 0 0 0 0 1018.6 1017.0 0.8
01/05:30am 14.8 15.5 13.5 92 0.7 W 2 4 1 2 1018.3 1016.7 0.8
01/05:00am 15.5 16.6 14.7 95 0.5 NNW 2 4 1 2 1017.9 1016.3 0.8
01/04:30am 15.1 15.7 14.3 95 0.5 NW 4 4 2 2 1017.8 1016.2 0.8
01/04:00am 14.7 14.7 13.6 93 0.6 WNW 6 6 3 3 1017.6 1016.0 0.8
01/03:30am 15.1 15.6 14.0 93 0.6 N 4 4 2 2 1017.5 1015.9 0.8
01/03:00am 15.5 16.2 14.4 93 0.6 NNE 4 6 2 3 1017.8 1016.2 0.8
01/02:30am 15.4 16.0 14.3 93 0.6 NW 4 4 2 2 1017.9 1016.3 0.8
01/02:00am 15.2 15.7 14.1 93 0.6 WNW 4 6 2 3 1018.4 1016.8 0.8
01/01:30am 15.4 15.9 14.1 92 0.7 WNW 4 6 2 3 1018.6 1017.0 0.8
01/01:00am 15.8 17.2 14.5 92 0.7 CALM 0 0 0 0 1018.9 1017.4 0.8
01/12:30am 15.9 17.3 14.4 91 0.9 CALM 0 0 0 0 1019.4 1017.9 0.8
01/12:00am 16.0 17.3 14.2 89 1.0 CALM 0 0 0 0 1019.4 1017.9 0.8
 
Date/Time
EST
Temp
°C
App
Temp
°C
Dew
Point
Rel
Hum
%
Delta-T
°C
Wind Press
QNH
hPa
Press
MSL
hPa
Rain
since 9 am
mm
Dir
 
Spd
km/h
Gust
km/h
Spd
kts
Gust
kts
31/11:30pm 17.0 18.1 14.6 86 1.4 NNW 2 2 1 1 1019.5 1018.0 0.8
31/11:00pm 16.8 17.6 14.8 88 1.2 NW 4 6 2 3 1019.9 1018.4 0.8
31/10:30pm 16.7 18.3 14.9 89 1.1 CALM 0 0 0 0 1020.2 1018.6 0.8
31/10:00pm 16.9 18.5 14.9 88 1.2 CALM 0 0 0 0 1020.3 1018.7 0.8
31/09:30pm 17.6 18.4 15.8 89 1.1 SW 6 7 3 4 1019.8 1018.3 0.8
31/09:00pm 17.4 18.4 15.4 88 1.2 NW 4 4 2 2 1019.5 1018.0 0.8
31/08:30pm 17.9 19.1 15.9 88 1.2 WNW 4 6 2 3 1019.3 1017.8 0.8
31/08:00pm 18.5 20.3 15.4 82 1.8 CALM 0 0 0 0 1018.8 1017.2 0.8
31/07:30pm 19.9 20.9 15.3 75 2.7 SSE 4 4 2 2 1018.5 1016.9 0.8
31/07:00pm 20.8 21.5 15.6 72 3.1 SSE 6 9 3 5 1018.3 1016.7 0.8
31/06:30pm 21.6 22.0 16.3 72 3.2 SE 9 13 5 7 1018.2 1016.6 0.8
31/06:00pm 21.9 21.6 16.4 71 3.4 SE 13 17 7 9 1017.9 1016.3 0.8
31/05:30pm 22.0 23.2 16.9 73 3.2 S 6 9 3 5 1018.2 1016.6 0.8
31/05:00pm 22.5 23.8 17.2 72 3.3 SSE 6 9 3 5 1017.9 1016.3 0.8
31/04:30pm 23.1 25.3 16.4 66 4.1 CALM 0 4 0 2 1017.8 1016.2 0.8
31/04:00pm 23.3 24.5 16.8 67 4.0 E 6 7 3 4 1017.6 1016.0 0.8
31/03:30pm 23.8 25.1 17.1 66 4.2 ENE 6 9 3 5 1017.8 1016.2 0.8
31/03:00pm 23.3 25.1 17.5 70 3.6 S 4 11 2 6 1018.8 1017.2 0.8
31/02:30pm 23.0 24.8 17.5 71 3.4 N 4 17 2 9 1018.3 1016.7 0.8
31/02:00pm 22.2 21.7 17.8 76 2.8 NE 17 32 9 17 1017.9 1016.3 0.8
31/01:49pm 21.9 20.4 17.7 77 2.6 NE 22 30 12 16 1017.1 1015.5 0.8
31/01:30pm 22.0 23.3 17.6 76 2.8 NE 7 11 4 6 1019.1 1017.6 0.8
31/01:00pm 23.0 24.6 16.8 68 3.8 SSE 4 6 2 3 1020.1 1018.5 0.4
31/12:30pm 22.7 23.9 17.4 72 3.3 SW 7 11 4 6 1020.7 1019.1 0.4
31/12:00pm 22.4 23.6 17.3 73 3.2 SSW 7 11 4 6 1021.3 1019.7 0.4
31/11:30am 22.0 23.6 18.2 79 2.4 SW 7 11 4 6 1022.0 1020.4 0.4
31/11:00am 21.9 23.5 17.9 78 2.5 SW 6 11 3 6 1022.1 1020.5 0.4
31/10:30am 21.6 23.2 18.2 81 2.1 WSW 7 11 4 6 1022.4 1020.9 0.4
31/10:00am 21.5 23.2 18.1 81 2.1 W 6 9 3 5 1022.7 1021.2 0.2
31/09:30am 22.1 23.9 17.5 75 2.9 WSW 4 6 2 3 1022.4 1020.9 0.0
31/09:00am 22.6 24.3 16.2 67 3.9 ENE 2 4 1 2 1022.0 1020.4 0.0
31/08:30am 22.4 23.6 16.0 67 3.9 ENE 4 7 2 4 1021.6 1020.0 0.0
31/08:00am 22.2 23.5 16.2 69 3.7 ENE 4 6 2 3 1021.2 1019.6 0.0
31/07:30am 22.0 23.1 16.5 71 3.4 ENE 6 9 3 5 1020.6 1019.0 0.0
31/07:00am 21.7 22.7 16.4 72 3.2 NNE 6 9 3 5 1019.8 1018.3 0.0
31/06:30am 21.4 22.6 15.9 71 3.3 NNE 4 6 2 3 1019.5 1018.0 0.0
31/06:00am 21.5 22.2 15.6 69 3.6 ENE 6 9 3 5 1019.1 1017.6 0.0
31/05:30am 21.8 22.2 15.4 67 3.9 ENE 7 9 4 5 1019.2 1017.7 0.0
31/05:00am 21.9 22.5 15.3 66 4.0 ENE 6 9 3 5 1018.9 1017.4 0.0
31/04:30am 22.1 22.5 15.2 65 4.2 ENE 7 11 4 6 1018.7 1017.1 0.0
31/04:00am 22.2 22.2 15.1 64 4.3 E 9 13 5 7 1018.6 1017.0 0.0
31/03:30am 22.6 22.5 15.0 62 4.6 ENE 9 17 5 9 1018.7 1017.1 0.0
31/03:00am 23.0 22.8 14.6 59 5.0 E 9 13 5 7 1019.0 1017.5 0.0
31/02:30am 23.5 22.9 14.5 57 5.4 E 11 17 6 9 1019.2 1017.7 0.0
31/02:00am 23.4 23.8 16.2 64 4.4 E 9 11 5 6 1019.4 1017.9 0.0
31/01:30am 23.7 24.4 16.2 63 4.6 E 7 13 4 7 1019.7 1018.2 0.0
31/01:00am 23.9 24.7 15.9 61 4.9 SE 6 7 3 4 1019.9 1018.4 0.0
31/12:30am 24.5 25.1 15.7 58 5.4 ENE 7 11 4 6 1019.8 1018.3 0.0
31/12:00am 24.6 25.0 14.7 54 6.0 NE 6 9 3 5 1019.9 1018.4 0.0
 
Date/Time
EST
Temp
°C
App
Temp
°C
Dew
Point
Rel
Hum
%
Delta-T
°C
Wind Press
QNH
hPa
Press
MSL
hPa
Rain
since 9 am
mm
Dir
 
Spd
km/h
Gust
km/h
Spd
kts
Gust
kts
30/11:30pm 25.1 25.0 14.9 53 6.2 ENE 9 15 5 8 1020.2 1018.6 0.0
30/11:00pm 25.3 24.9 14.1 50 6.7 ENE 9 11 5 6 1020.3 1018.7 0.0
30/10:30pm 24.4 24.3 13.9 52 6.2 E 7 9 4 5 1020.3 1018.7 0.0
30/10:00pm 24.9 24.8 13.8 50 6.6 E 7 9 4 5 1020.2 1018.6 0.0
30/09:30pm 25.1 24.9 13.6 49 6.8 ESE 7 9 4 5 1020.1 1018.5 0.0
30/09:00pm 26.3 25.7 13.4 45 7.6 E 9 11 5 6 1019.7 1018.2 0.0
30/08:30pm 27.5 26.2 13.8 43 8.2 ESE 13 19 7 10 1019.4 1017.9 0.0
30/08:00pm 25.7 25.7 14.2 49 6.9 ESE 7 13 4 7 1019.1 1017.6 0.0
30/07:30pm 26.7 26.6 13.4 43 7.9 ENE 6 6 3 3 1018.6 1017.0 0.0
30/07:00pm 28.3 27.9 13.0 39 9.1 NE 7 9 4 5 1018.2 1016.6 0.0
30/06:30pm 28.7 28.4 12.6 37 9.5 NE 6 9 3 5 1017.9 1016.3 0.0
30/06:00pm 29.4 29.1 12.8 36 9.9 NE 6 9 3 5 1017.6 1016.0 0.0
30/05:30pm 30.4 29.8 12.3 33 10.8 NE 7 11 4 6 1017.4 1015.8 0.0
30/05:00pm 31.3 29.9 12.2 31 11.4 NNE 11 15 6 8 1017.2 1015.6 0.0

Other Formats:

Comma delimited format used in spreadsheet applications
http://www.bom.gov.au/fwo/IDQ60801/IDQ60801.94399.axf

JavaScript Object Notation format (JSON) in row-major order
http://www.bom.gov.au/fwo/IDQ60801/IDQ60801.94399.json